createdAt,value
2023-05-01T00:01:15.486Z,9.18
2023-05-01T00:03:42.804Z,9.35
2023-05-01T00:06:11.135Z,8.38
2023-05-01T00:08:39.839Z,8.52
2023-05-01T00:11:11.585Z,9.00
2023-05-01T00:13:40.966Z,9.80
2023-05-01T00:16:14.168Z,9.05
2023-05-01T00:18:42.384Z,8.63
2023-05-01T00:21:09.982Z,9.48
2023-05-01T00:23:37.447Z,9.55
2023-05-01T00:26:04.985Z,10.00
2023-05-01T00:28:32.946Z,9.27
2023-05-01T00:31:00.349Z,10.00
2023-05-01T00:33:27.969Z,9.82
2023-05-01T00:35:56.459Z,8.73
2023-05-01T00:38:24.642Z,9.20
2023-05-01T00:40:51.975Z,9.30
2023-05-01T00:43:19.260Z,10.48
2023-05-01T00:45:47.544Z,13.02
2023-05-01T00:48:16.739Z,9.10
2023-05-01T00:50:48.098Z,9.18
2023-05-01T00:53:16.945Z,7.72
2023-05-01T00:55:45.593Z,8.05
2023-05-01T00:58:13.507Z,7.93
2023-05-01T01:00:43.202Z,8.75
2023-05-01T01:03:10.827Z,8.63
2023-05-01T01:05:43.658Z,9.05
2023-05-01T01:08:22.498Z,8.00
2023-05-01T01:11:42.808Z,8.13
2023-05-01T01:14:34.671Z,7.65
2023-05-01T01:17:12.348Z,8.38
2023-05-01T01:20:17.585Z,9.15
2023-05-01T01:22:49.525Z,9.52
2023-05-01T01:25:50.800Z,9.75
2023-05-01T01:28:46.894Z,9.90
2023-05-01T01:31:47.737Z,9.70
2023-05-01T01:34:40.498Z,9.90
2023-05-01T01:37:44.081Z,9.80
2023-05-01T01:40:24.390Z,9.65
2023-05-01T01:43:05.867Z,10.13
2023-05-01T01:45:47.620Z,9.35
2023-05-01T01:48:23.059Z,9.90
2023-05-01T01:50:59.691Z,9.25
2023-05-01T01:53:37.901Z,8.57
2023-05-01T01:56:08.079Z,8.48
2023-05-01T01:58:37.295Z,9.13
2023-05-01T02:01:07.382Z,19.73
2023-05-01T02:03:35.270Z,11.23
2023-05-01T02:06:05.690Z,8.38
2023-05-01T02:08:36.833Z,8.35
2023-05-01T02:11:05.503Z,8.13
2023-05-01T02:13:34.314Z,8.45
2023-05-01T02:16:04.385Z,9.73
2023-05-01T02:18:38.904Z,13.45
2023-05-01T02:21:07.358Z,9.70
2023-05-01T02:23:35.025Z,10.52
2023-05-01T02:26:04.607Z,10.98
2023-05-01T02:28:34.544Z,9.57
2023-05-01T02:31:01.901Z,10.32
2023-05-01T02:33:29.225Z,10.30
2023-05-01T02:35:56.776Z,10.43
2023-05-01T02:38:30.689Z,9.60
2023-05-01T02:40:58.908Z,11.48
2023-05-01T02:43:29.138Z,10.55
2023-05-01T02:45:59.423Z,10.43
2023-05-01T02:48:31.106Z,9.02
2023-05-01T02:50:59.184Z,8.90
2023-05-01T02:53:26.312Z,8.23
2023-05-01T02:55:55.368Z,8.48
2023-05-01T02:58:33.061Z,8.50
2023-05-01T03:01:00.750Z,9.80
2023-05-01T03:03:30.622Z,9.07
2023-05-01T03:05:58.963Z,9.23
2023-05-01T03:08:26.585Z,9.25
2023-05-01T03:10:55.031Z,10.27
2023-05-01T03:13:23.036Z,10.23
2023-05-01T03:15:50.385Z,9.75
2023-05-01T03:18:24.236Z,10.30
2023-05-01T03:20:55.449Z,10.48
2023-05-01T03:23:24.057Z,10.32
2023-05-01T03:25:51.858Z,11.98
2023-05-01T03:28:19.477Z,12.23
2023-05-01T03:30:50.141Z,11.15
2023-05-01T03:33:17.431Z,11.00
2023-05-01T03:35:44.891Z,11.30
2023-05-01T03:38:12.337Z,11.02
2023-05-01T03:40:39.778Z,11.05
2023-05-01T03:43:07.662Z,10.68
2023-05-01T03:45:35.299Z,11.48
2023-05-01T03:48:02.919Z,11.30
2023-05-01T03:50:30.101Z,11.52
2023-05-01T03:52:57.980Z,11.88
2023-05-01T03:55:26.204Z,11.90
2023-05-01T03:57:53.645Z,12.10
2023-05-01T04:00:21.186Z,11.80
2023-05-01T04:02:50.784Z,11.70
2023-05-01T04:05:18.917Z,11.43
2023-05-01T04:07:46.173Z,10.57
2023-05-01T04:10:13.673Z,10.95
2023-05-01T04:12:41.979Z,10.52
2023-05-01T04:15:10.945Z,10.60
2023-05-01T04:17:38.643Z,10.63
2023-05-01T04:20:06.910Z,10.15
2023-05-01T04:22:34.288Z,10.55
2023-05-01T04:25:01.942Z,9.77
2023-05-01T04:27:29.968Z,10.48
2023-05-01T04:30:03.019Z,10.88
2023-05-01T04:32:31.609Z,11.80
2023-05-01T04:35:06.406Z,11.48
2023-05-01T04:37:35.890Z,12.73
2023-05-01T04:40:03.676Z,13.75
2023-05-01T04:42:33.943Z,11.98
2023-05-01T04:45:04.388Z,11.80
2023-05-01T04:47:33.057Z,12.35
2023-05-01T04:50:00.532Z,11.95
2023-05-01T04:52:27.943Z,12.02
2023-05-01T04:54:55.384Z,13.50
2023-05-01T04:57:22.791Z,11.68
2023-05-01T04:59:50.297Z,12.65
2023-05-01T05:02:17.728Z,12.77
2023-05-01T05:04:45.149Z,12.70
2023-05-01T05:07:13.308Z,13.00
2023-05-01T05:09:41.750Z,12.27
2023-05-01T05:12:09.787Z,12.70
2023-05-01T05:14:37.178Z,13.57
2023-05-01T05:17:04.656Z,39.03
2023-05-01T05:19:32.066Z,30.42
2023-05-01T05:21:59.554Z,23.70
2023-05-01T05:24:27.033Z,18.02
2023-05-01T05:26:55.280Z,16.85
2023-05-01T05:29:23.170Z,17.45
2023-05-01T05:31:50.367Z,16.88
2023-05-01T05:34:19.909Z,18.55
2023-05-01T05:36:47.452Z,17.65
2023-05-01T05:39:14.955Z,17.40
2023-05-01T05:41:44.384Z,16.70
2023-05-01T05:44:11.900Z,17.17
2023-05-01T05:46:40.522Z,17.95
2023-05-01T05:49:07.773Z,17.35
2023-05-01T05:51:35.238Z,17.40
2023-05-01T05:54:02.778Z,16.60
2023-05-01T05:56:30.227Z,18.48
2023-05-01T05:58:57.656Z,18.92
2023-05-01T06:01:25.217Z,19.50
2023-05-01T06:03:52.372Z,19.70
2023-05-01T06:06:19.893Z,19.50
2023-05-01T06:08:47.440Z,16.98
2023-05-01T06:11:14.857Z,15.93
2023-05-01T06:13:42.620Z,15.40
2023-05-01T06:16:09.972Z,12.18
2023-05-01T06:18:43.389Z,13.07
2023-05-01T06:21:12.381Z,13.88
2023-05-01T06:23:40.356Z,14.60
2023-05-01T06:26:10.429Z,12.70
2023-05-01T06:28:38.022Z,14.73
2023-05-01T06:31:05.935Z,14.85
2023-05-01T06:33:39.389Z,15.88
2023-05-01T06:36:07.075Z,13.27
2023-05-01T06:38:35.424Z,12.70
2023-05-01T06:41:02.865Z,10.73
2023-05-01T06:43:32.815Z,9.40
2023-05-01T06:46:00.491Z,8.23
2023-05-01T06:48:29.106Z,9.13
2023-05-01T06:50:56.729Z,8.52
2023-05-01T06:53:24.357Z,8.73
2023-05-01T06:55:52.760Z,8.75
2023-05-01T06:58:23.966Z,8.75
2023-05-01T07:00:53.010Z,8.18
2023-05-01T07:03:20.239Z,8.48
2023-05-01T07:05:47.770Z,8.65
2023-05-01T07:08:15.194Z,9.15
2023-05-01T07:10:44.730Z,9.02
2023-05-01T07:13:12.200Z,8.82
2023-05-01T07:15:39.575Z,8.45
2023-05-01T07:18:07.297Z,7.88
2023-05-01T07:20:36.994Z,8.80
2023-05-01T07:23:07.274Z,7.90
2023-05-01T07:25:41.696Z,8.32
2023-05-01T07:28:09.246Z,6.70
2023-05-01T07:30:37.886Z,7.45
2023-05-01T07:33:06.219Z,7.68
2023-05-01T07:35:33.844Z,6.82
2023-05-01T07:38:01.361Z,8.85
2023-05-01T07:40:28.856Z,7.43
2023-05-01T07:42:56.215Z,7.65
2023-05-01T07:45:24.762Z,6.90
2023-05-01T07:47:52.711Z,7.18
2023-05-01T07:50:23.076Z,7.05
2023-05-01T07:52:50.759Z,6.80
2023-05-01T07:55:19.599Z,7.00
2023-05-01T07:57:47.129Z,7.07
2023-05-01T08:00:15.177Z,6.05
2023-05-01T08:02:42.999Z,5.47
2023-05-01T08:05:11.719Z,6.32
2023-05-01T08:07:38.968Z,6.40
2023-05-01T08:10:06.961Z,6.72
2023-05-01T08:12:34.508Z,6.70
2023-05-01T08:15:02.039Z,6.80
2023-05-01T08:17:30.470Z,6.75
2023-05-01T08:19:58.193Z,7.05
2023-05-01T08:22:25.768Z,7.22
2023-05-01T08:24:53.273Z,7.82
2023-05-01T08:27:20.911Z,6.40
2023-05-01T08:29:48.382Z,6.75
2023-05-01T08:32:19.690Z,6.15
2023-05-01T08:34:47.353Z,7.00
2023-05-01T08:37:16.022Z,7.32
2023-05-01T08:39:43.596Z,7.03
2023-05-01T08:42:11.560Z,7.53
2023-05-01T08:44:42.585Z,6.82
2023-05-01T08:47:12.961Z,7.57
2023-05-01T08:49:43.597Z,6.57
2023-05-01T08:52:14.449Z,6.72
2023-05-01T08:54:47.509Z,7.53
2023-05-01T08:57:16.298Z,8.95
2023-05-01T08:59:45.396Z,8.18
2023-05-01T09:02:26.041Z,7.10
2023-05-01T09:04:54.613Z,7.95
2023-05-01T09:07:24.537Z,8.15
2023-05-01T09:09:52.119Z,8.40
2023-05-01T09:12:29.947Z,8.13
2023-05-01T09:15:04.494Z,7.97
2023-05-01T09:17:32.810Z,8.00
2023-05-01T09:20:05.052Z,8.48
2023-05-01T09:22:35.782Z,7.80
2023-05-01T09:25:07.165Z,8.25
2023-05-01T09:27:36.179Z,7.88
2023-05-01T09:30:04.150Z,7.13
2023-05-01T09:32:31.596Z,7.20
2023-05-01T09:35:15.721Z,7.20
2023-05-01T09:37:44.833Z,8.60
2023-05-01T09:40:15.200Z,6.57
2023-05-01T09:42:53.276Z,6.85
2023-05-01T09:45:23.929Z,7.20
2023-05-01T09:47:52.827Z,6.28
2023-05-01T09:50:34.802Z,6.20
2023-05-01T09:53:05.075Z,6.90
2023-05-01T09:55:38.446Z,6.90
2023-05-01T09:58:06.899Z,7.25
2023-05-01T10:00:48.786Z,6.43
2023-05-01T10:03:16.171Z,6.90
2023-05-01T10:05:44.858Z,6.50
2023-05-01T10:08:16.321Z,6.55
2023-05-01T10:11:01.155Z,6.68
2023-05-01T10:13:28.948Z,6.85
2023-05-01T10:15:56.200Z,6.03
2023-05-01T10:18:24.459Z,5.68
2023-05-01T10:20:52.352Z,5.25
2023-05-01T10:23:26.356Z,5.68
2023-05-01T10:25:54.322Z,4.97
2023-05-01T10:28:22.267Z,5.63
2023-05-01T10:30:50.557Z,5.78
2023-05-01T10:33:18.859Z,5.53
2023-05-01T10:35:55.778Z,5.47
2023-05-01T10:38:28.215Z,5.63
2023-05-01T10:41:01.618Z,5.85
2023-05-01T10:43:32.619Z,6.20
2023-05-01T10:46:19.595Z,5.82
2023-05-01T10:48:47.058Z,4.47
2023-05-01T10:51:20.838Z,4.38
2023-05-01T10:56:25.965Z,3.50
2023-05-01T10:58:54.416Z,3.28
2023-05-01T11:01:54.181Z,3.50
2023-05-01T11:04:24.965Z,3.63
2023-05-01T11:06:58.739Z,3.47
2023-05-01T11:12:11.521Z,2.90
2023-05-01T11:15:08.413Z,3.10
2023-05-01T11:17:42.827Z,3.13
2023-05-01T11:20:26.616Z,3.00
2023-05-01T11:22:56.148Z,3.00
2023-05-01T11:25:28.106Z,3.03
2023-05-01T11:27:59.761Z,3.72
2023-05-01T11:30:27.388Z,3.28
2023-05-01T11:32:54.982Z,3.15
2023-05-01T11:35:24.625Z,3.72
2023-05-01T11:37:52.566Z,3.30
2023-05-01T11:40:22.162Z,2.80
2023-05-01T11:42:50.787Z,3.03
2023-05-01T11:45:20.470Z,3.38
2023-05-01T11:47:49.214Z,2.70
2023-05-01T11:50:17.486Z,2.70
2023-05-01T11:52:50.309Z,2.90
2023-05-01T11:55:18.085Z,2.77
2023-05-01T11:57:54.082Z,2.90
2023-05-01T12:00:37.143Z,2.40
2023-05-01T12:03:15.560Z,3.10
2023-05-01T12:05:46.867Z,3.15
2023-05-01T12:08:23.621Z,3.10
2023-05-01T12:10:59.017Z,2.78
2023-05-01T12:13:29.832Z,2.75
2023-05-01T12:15:57.668Z,2.95
2023-05-01T12:18:25.446Z,2.80
2023-05-01T12:20:54.951Z,3.00
2023-05-01T12:23:37.746Z,2.97
2023-05-01T12:26:26.719Z,2.90
2023-05-01T12:28:54.964Z,3.05
2023-05-01T12:31:26.603Z,2.85
2023-05-01T12:34:00.626Z,3.00
2023-05-01T12:36:36.835Z,3.10
2023-05-01T12:39:06.719Z,2.78
2023-05-01T12:41:47.472Z,3.40
2023-05-01T12:44:31.046Z,2.97
2023-05-01T12:47:06.985Z,3.10
2023-05-01T12:49:38.481Z,3.05
2023-05-01T12:52:08.261Z,3.10
2023-05-01T12:54:39.765Z,3.13
2023-05-01T12:57:07.069Z,3.25
2023-05-01T12:59:36.753Z,3.28
2023-05-01T13:02:07.878Z,3.20
2023-05-01T13:04:36.835Z,3.17
2023-05-01T13:07:19.835Z,3.30
2023-05-01T13:09:56.001Z,3.00
2023-05-01T13:12:32.463Z,3.67
2023-05-01T13:15:07.297Z,3.35
2023-05-01T13:17:35.001Z,3.35
2023-05-01T13:20:05.361Z,3.10
2023-05-01T13:22:38.087Z,3.83
2023-05-01T13:25:19.330Z,3.50
2023-05-01T13:27:53.634Z,3.53
2023-05-01T13:30:31.876Z,3.50
2023-05-01T13:32:59.643Z,3.40
2023-05-01T13:35:28.476Z,3.72
2023-05-01T13:37:57.311Z,3.15
2023-05-01T13:40:26.790Z,3.63
2023-05-01T13:42:54.466Z,3.38
2023-05-01T13:45:22.056Z,3.22
2023-05-01T13:47:52.256Z,3.42
2023-05-01T13:50:20.033Z,3.78
2023-05-01T13:52:48.867Z,3.78
2023-05-01T13:55:18.034Z,3.50
2023-05-01T13:57:45.384Z,3.35
2023-05-01T14:00:19.691Z,3.65
2023-05-01T14:02:54.357Z,3.38
2023-05-01T14:05:28.651Z,3.75
2023-05-01T14:07:58.716Z,3.65
2023-05-01T14:10:29.046Z,3.35
2023-05-01T14:13:00.142Z,3.55
2023-05-01T14:15:29.888Z,3.92
2023-05-01T14:18:01.423Z,3.50
2023-05-01T14:20:28.689Z,3.75
2023-05-01T14:22:56.520Z,4.20
2023-05-01T14:25:33.435Z,3.97
2023-05-01T14:28:08.266Z,4.03
2023-05-01T14:30:39.676Z,6.50
2023-05-01T14:33:16.487Z,4.00
2023-05-01T14:35:54.161Z,3.75
2023-05-01T14:38:26.133Z,3.63
2023-05-01T14:40:53.572Z,3.72
2023-05-01T14:43:23.028Z,4.30
2023-05-01T14:45:50.589Z,4.15
2023-05-01T14:48:24.065Z,4.30
2023-05-01T14:50:52.334Z,4.35
2023-05-01T14:53:28.019Z,3.75
2023-05-01T14:55:55.631Z,4.30
2023-05-01T14:58:24.303Z,4.00
2023-05-01T15:00:51.594Z,4.00
2023-05-01T15:03:18.812Z,3.63
2023-05-01T15:05:46.947Z,3.70
2023-05-01T15:08:15.363Z,4.03
2023-05-01T15:10:43.924Z,3.63
2023-05-01T15:13:11.314Z,3.53
2023-05-01T15:15:38.930Z,3.35
2023-05-01T15:18:07.748Z,4.13
2023-05-01T15:20:36.320Z,4.35
2023-05-01T15:23:03.792Z,3.63
2023-05-01T15:25:31.233Z,3.22
2023-05-01T15:27:58.671Z,4.80
2023-05-01T15:30:26.155Z,3.70
2023-05-01T15:32:56.685Z,3.70
2023-05-01T15:35:24.466Z,3.33
2023-05-01T15:37:51.834Z,3.95
2023-05-01T15:40:25.319Z,3.75
2023-05-01T15:42:53.751Z,3.50
2023-05-01T15:45:21.457Z,2.92
2023-05-01T15:47:51.483Z,3.35
2023-05-01T15:50:18.615Z,3.60
2023-05-01T15:52:46.458Z,3.50
2023-05-01T15:55:14.074Z,4.70
2023-05-01T15:57:41.989Z,4.05
2023-05-01T16:00:17.209Z,3.42
2023-05-01T16:02:45.216Z,3.67
2023-05-01T16:05:17.076Z,3.90
2023-05-01T16:07:46.613Z,3.83
2023-05-01T16:10:14.182Z,3.50
2023-05-01T16:12:41.623Z,3.63
2023-05-01T16:15:09.825Z,3.00
2023-05-01T16:17:44.248Z,3.20
2023-05-01T16:20:14.659Z,3.00
2023-05-01T16:22:43.618Z,3.50
2023-05-01T16:25:11.338Z,3.30
2023-05-01T16:27:46.707Z,3.40
2023-05-01T16:30:15.185Z,4.00
2023-05-01T16:32:43.559Z,4.32
2023-05-01T16:35:27.161Z,3.42
2023-05-01T16:37:55.876Z,3.45
2023-05-01T16:40:29.651Z,3.95
2023-05-01T16:45:29.394Z,3.35
2023-05-01T16:48:09.195Z,3.58
2023-05-01T16:50:41.840Z,3.63
2023-05-01T16:53:16.598Z,3.78
2023-05-01T16:55:44.505Z,4.32
2023-05-01T16:58:12.471Z,4.00
2023-05-01T17:00:40.376Z,4.50
2023-05-01T17:03:15.558Z,4.07
2023-05-01T17:05:43.347Z,3.88
2023-05-01T17:08:13.785Z,3.85
2023-05-01T17:10:41.317Z,4.20
2023-05-01T17:13:09.602Z,4.30
2023-05-01T17:15:37.555Z,4.15
2023-05-01T17:18:06.091Z,4.20
2023-05-01T17:20:33.588Z,4.25
2023-05-01T17:23:01.188Z,4.80
2023-05-01T17:25:30.825Z,4.93
2023-05-01T17:27:59.608Z,5.20
2023-05-01T17:30:29.265Z,4.80
2023-05-01T17:32:57.634Z,4.93
2023-05-01T17:35:27.106Z,5.10
2023-05-01T17:37:54.506Z,5.22
2023-05-01T17:40:22.152Z,5.60
2023-05-01T17:42:49.803Z,5.28
2023-05-01T17:45:24.019Z,5.32
2023-05-01T17:47:54.870Z,5.65
2023-05-01T17:50:25.186Z,5.53
2023-05-01T17:52:52.946Z,5.32
2023-05-01T17:55:33.681Z,5.88
2023-05-01T17:58:01.227Z,5.13
2023-05-01T18:00:31.796Z,5.97
2023-05-01T18:02:59.562Z,5.70
2023-05-01T18:05:27.550Z,6.25
2023-05-01T18:07:55.302Z,6.35
2023-05-01T18:10:23.548Z,6.40
2023-05-01T18:12:51.458Z,6.72
2023-05-01T18:15:22.971Z,6.75
2023-05-01T18:17:52.387Z,7.65
2023-05-01T18:20:20.040Z,7.30
2023-05-01T18:22:47.187Z,7.25
2023-05-01T18:25:16.208Z,7.85
2023-05-01T18:27:46.685Z,7.15
2023-05-01T18:30:20.590Z,7.22
2023-05-01T18:32:49.278Z,12.27
2023-05-01T18:35:20.412Z,7.40
2023-05-01T18:37:49.266Z,7.30
2023-05-01T18:40:17.033Z,7.90
2023-05-01T18:42:44.812Z,8.43
2023-05-01T18:45:12.900Z,6.90
2023-05-01T18:47:43.066Z,6.10
2023-05-01T18:50:12.489Z,5.93
2023-05-01T18:52:42.828Z,6.00
2023-05-01T18:55:12.623Z,5.85
2023-05-01T18:57:44.213Z,5.70
2023-05-01T19:00:16.093Z,5.90
2023-05-01T19:02:47.194Z,6.35
2023-05-01T19:05:15.791Z,5.93
2023-05-01T19:07:43.915Z,6.85
2023-05-01T19:10:12.854Z,6.90
2023-05-01T19:12:43.081Z,6.68
2023-05-01T19:15:11.652Z,7.53
2023-05-01T19:17:40.429Z,7.00
2023-05-01T19:20:09.316Z,6.65
2023-05-01T19:22:37.255Z,6.97
2023-05-01T19:25:11.388Z,6.68
2023-05-01T19:27:42.772Z,6.78
2023-05-01T19:30:17.500Z,6.85
2023-05-01T19:32:48.640Z,6.00
2023-05-01T19:35:17.337Z,5.55
2023-05-01T19:37:48.162Z,5.75
2023-05-01T19:40:17.884Z,5.85
2023-05-01T19:42:46.300Z,5.68
2023-05-01T19:45:17.044Z,5.65
2023-05-01T19:47:46.276Z,5.78
2023-05-01T19:50:14.113Z,6.38
2023-05-01T19:52:42.312Z,5.45
2023-05-01T19:55:11.423Z,5.60
2023-05-01T19:57:39.838Z,5.20
2023-05-01T20:00:09.342Z,5.45
2023-05-01T20:02:37.925Z,5.05
2023-05-01T20:05:08.811Z,5.40
2023-05-01T20:07:36.094Z,5.35
2023-05-01T20:10:03.610Z,5.05
2023-05-01T20:12:32.890Z,5.82
2023-05-01T20:15:01.730Z,5.13
2023-05-01T20:17:30.231Z,4.90
2023-05-01T20:19:57.590Z,4.68
2023-05-01T20:22:25.775Z,5.38
2023-05-01T20:24:53.121Z,5.20
2023-05-01T20:27:20.714Z,4.97
2023-05-01T20:29:55.556Z,5.05
2023-05-01T20:32:23.189Z,5.00
2023-05-01T20:34:51.031Z,4.72
2023-05-01T20:37:20.337Z,4.40
2023-05-01T20:39:48.943Z,5.10
2023-05-01T20:42:16.513Z,4.82
2023-05-01T20:44:44.848Z,5.05
2023-05-01T20:47:12.356Z,5.28
2023-05-01T20:49:40.524Z,4.93
2023-05-01T20:52:07.676Z,4.53
2023-05-01T20:54:35.172Z,4.85
2023-05-01T20:57:04.280Z,5.40
2023-05-01T20:59:31.523Z,4.88
2023-05-01T21:01:59.156Z,5.15
2023-05-01T21:04:26.428Z,5.00
2023-05-01T21:06:54.156Z,5.05
2023-05-01T21:09:22.389Z,4.57
2023-05-01T21:11:49.907Z,5.47
2023-05-01T21:14:17.322Z,4.72
2023-05-01T21:16:44.785Z,5.97
2023-05-01T21:19:13.511Z,6.22
2023-05-01T21:21:42.929Z,6.47
2023-05-01T21:24:26.501Z,5.88
2023-05-01T21:26:58.059Z,5.47
2023-05-01T21:29:25.640Z,5.45
2023-05-01T21:31:53.203Z,6.03
2023-05-01T21:34:20.549Z,5.43
2023-05-01T21:36:49.577Z,5.40
2023-05-01T21:39:16.991Z,4.90
2023-05-01T21:41:44.565Z,5.53
2023-05-01T21:44:12.719Z,6.25
2023-05-01T21:46:40.203Z,6.07
2023-05-01T21:49:07.861Z,6.32
2023-05-01T21:51:35.349Z,6.63
2023-05-01T21:54:05.108Z,5.80
2023-05-01T21:56:32.410Z,7.43
2023-05-01T21:59:02.691Z,6.78
2023-05-01T22:01:32.039Z,7.07
2023-05-01T22:03:59.264Z,7.25
2023-05-01T22:06:27.082Z,7.03
2023-05-01T22:08:54.672Z,7.82
2023-05-01T22:11:24.784Z,7.75
2023-05-01T22:13:52.190Z,6.93
2023-05-01T22:16:19.681Z,7.28
2023-05-01T22:18:49.370Z,7.40
2023-05-01T22:21:18.188Z,7.57
2023-05-01T22:23:45.891Z,8.57
2023-05-01T22:26:20.183Z,8.23
2023-05-01T22:28:47.857Z,7.57
2023-05-01T22:31:23.460Z,7.78
2023-05-01T22:33:58.914Z,8.25
2023-05-01T22:36:26.424Z,7.97
2023-05-01T22:38:54.068Z,8.30
2023-05-01T22:41:21.263Z,9.27
2023-05-01T22:43:48.797Z,9.45
2023-05-01T22:46:17.613Z,8.45
2023-05-01T22:48:45.873Z,8.73
2023-05-01T22:51:13.226Z,9.25
2023-05-01T22:53:41.741Z,7.85
2023-05-01T22:56:09.260Z,9.20
2023-05-01T22:58:38.862Z,8.82
2023-05-01T23:01:06.283Z,9.32
2023-05-01T23:03:35.800Z,11.25
2023-05-01T23:06:06.746Z,11.25
2023-05-01T23:08:36.331Z,10.93
2023-05-01T23:11:04.758Z,11.55
2023-05-01T23:13:32.616Z,11.55
2023-05-01T23:16:00.197Z,10.45
2023-05-01T23:18:40.037Z,9.48
2023-05-01T23:21:17.960Z,10.07
2023-05-01T23:23:47.166Z,9.65
2023-05-01T23:26:29.378Z,10.13
2023-05-01T23:28:56.784Z,11.00
2023-05-01T23:31:29.581Z,9.77
2023-05-01T23:34:02.825Z,10.50
2023-05-01T23:36:31.475Z,10.32
2023-05-01T23:39:00.908Z,10.52
2023-05-01T23:41:28.823Z,10.95
2023-05-01T23:43:56.541Z,11.10
2023-05-01T23:46:23.828Z,10.90
2023-05-01T23:48:51.737Z,11.32
2023-05-01T23:51:19.109Z,10.60
2023-05-01T23:53:47.030Z,10.82
2023-05-01T23:56:14.595Z,10.20
2023-05-01T23:58:42.183Z,18.77
